TimeCEST,TemperatureF,Dew PointF,Humidity,Sea Level PressureIn,VisibilityMPH,Wind Direction,Wind SpeedMPH,Gust SpeedMPH,PrecipitationIn,Events,Conditions,WindDirDegrees,DateUTC
12:55 AM,66.2,62.6,88,30.06,-9999.0,WSW,4.6,-,N/A,,Clear,240,2012-10-04 22:55:00
2:00 AM,65,63,92,30.06,12,WNW,4.6,,,,,290,2012-10-05 00:00:00
2:55 AM,66.2,64.4,94,30.06,-9999.0,WNW,3.5,-,N/A,,Clear,290,2012-10-05 00:55:00
3:55 AM,66.2,62.6,88,30.06,-9999.0,WNW,4.6,-,N/A,,Clear,300,2012-10-05 01:55:00
4:55 AM,64.4,62.6,94,30.06,-9999.0,NW,4.6,-,N/A,,Clear,310,2012-10-05 02:55:00
5:55 AM,64.4,60.8,88,30.06,-9999.0,WNW,8.1,-,N/A,,Clear,290,2012-10-05 03:55:00
6:55 AM,64.4,62.6,94,30.06,-9999.0,WNW,6.9,-,N/A,,Clear,290,2012-10-05 04:55:00
7:55 AM,64.4,60.8,88,30.06,-9999.0,WNW,6.9,-,N/A,,Clear,290,2012-10-05 05:55:00
8:00 AM,64,61,88,30.06,12,WNW,6.9,,,,,290,2012-10-05 06:00:00
8:55 AM,66.2,59.0,78,30.06,-9999.0,WNW,3.5,-,N/A,,Clear,290,2012-10-05 06:55:00
9:55 AM,71.6,64.4,78,30.09,-9999.0,SE,2.3,-,N/A,,Clear,130,2012-10-05 07:55:00
10:55 AM,75.2,66.2,73,30.09,-9999.0,SSE,2.3,-,N/A,,Clear,150,2012-10-05 08:55:00
11:55 AM,82.4,75.2,79,30.09,-9999.0,South,5.8,-,N/A,,Clear,180,2012-10-05 09:55:00
12:55 PM,78.8,68.0,69,30.12,-9999.0,SSE,2.3,-,N/A,,Clear,160,2012-10-05 10:55:00
1:55 PM,80.6,68.0,65,30.09,6.2,SSE,3.5,-,N/A,,Partly Cloudy,150,2012-10-05 11:55:00
2:00 PM,80,67,57,30.10,12,SSE,3.5,,,,Scattered Clouds,150,2012-10-05 12:00:00
2:55 PM,77.0,66.2,69,30.09,6.2,South,3.5,-,N/A,,Partly Cloudy,170,2012-10-05 12:55:00
3:55 PM,77.0,66.2,69,30.09,6.2,South,3.5,-,N/A,,Partly Cloudy,190,2012-10-05 13:55:00
5:55 PM,75.2,66.2,73,30.09,6.2,South,6.9,-,N/A,,Partly Cloudy,190,2012-10-05 15:55:00
6:55 PM,71.6,66.2,83,30.09,6.2,South,9.2,-,N/A,,Partly Cloudy,190,2012-10-05 16:55:00
8:00 PM,71,67,85,30.10,12,South,9.2,,,,,190,2012-10-05 18:00:00
8:55 PM,69.8,68.0,94,30.09,-9999.0,SSW,9.2,-,N/A,,Clear,200,2012-10-05 18:55:00
9:55 PM,68.0,66.2,94,30.09,-9999.0,West,5.8,-,N/A,,Clear,270,2012-10-05 19:55:00
10:55 PM,68.0,66.2,94,30.09,-9999.0,West,6.9,-,N/A,,Clear,260,2012-10-05 20:55:00
11:55 PM,68.0,66.2,94,30.12,-9999.0,WSW,6.9,-,N/A,,Clear,250,2012-10-05 21:55:00